createdAt,value
2018-08-19T00:00:29.926Z,7.07
2018-08-19T00:03:01.277Z,8.17
2018-08-19T00:05:29.656Z,7.50
2018-08-19T00:07:57.988Z,8.77
2018-08-19T00:10:39.264Z,7.20
2018-08-19T00:13:08.905Z,7.50
2018-08-19T00:15:37.673Z,7.20
2018-08-19T00:18:08.229Z,7.23
2018-08-19T00:20:36.536Z,7.23
2018-08-19T00:23:06.089Z,9.00
2018-08-19T00:25:37.926Z,7.97
2018-08-19T00:28:09.629Z,8.07
2018-08-19T00:30:38.925Z,8.07
2018-08-19T00:33:07.237Z,7.63
2018-08-19T00:35:35.532Z,8.27
2018-08-19T00:38:04.886Z,7.77
2018-08-19T00:40:33.198Z,6.73
2018-08-19T00:43:01.481Z,8.20
2018-08-19T00:45:29.758Z,9.13
2018-08-19T00:47:58.057Z,7.60
2018-08-19T00:50:26.589Z,7.10
2018-08-19T00:52:55.520Z,7.70
2018-08-19T00:55:24.273Z,7.83
2018-08-19T00:58:00.303Z,8.23
2018-08-19T01:00:29.430Z,6.80
2018-08-19T01:02:57.721Z,8.07
2018-08-19T01:05:26.009Z,6.73
2018-08-19T01:07:54.298Z,6.30
2018-08-19T01:10:22.577Z,7.20
2018-08-19T01:12:50.873Z,7.47
2018-08-19T01:15:19.136Z,6.43
2018-08-19T01:17:48.493Z,6.37
2018-08-19T01:20:21.709Z,6.80
2018-08-19T01:22:50.034Z,6.97
2018-08-19T01:25:18.509Z,7.37
2018-08-19T01:27:46.861Z,7.30
2018-08-19T01:30:18.081Z,7.97
2018-08-19T01:32:46.521Z,7.13
2018-08-19T01:35:14.970Z,6.40
2018-08-19T01:37:43.213Z,8.00
2018-08-19T01:40:15.544Z,7.10
2018-08-19T01:42:44.001Z,7.70
2018-08-19T01:45:12.297Z,8.57
2018-08-19T01:47:40.562Z,8.33
2018-08-19T01:50:14.392Z,8.17
2018-08-19T01:53:45.789Z,7.40
2018-08-19T01:56:14.065Z,6.70
2018-08-19T01:58:46.672Z,6.87
2018-08-19T02:01:15.984Z,7.43
2018-08-19T02:03:44.908Z,8.50
2018-08-19T02:06:13.213Z,9.97
2018-08-19T02:08:41.500Z,8.57
2018-08-19T02:11:24.896Z,7.50
2018-08-19T02:13:54.229Z,7.73
2018-08-19T02:16:22.504Z,8.83
2018-08-19T02:18:50.756Z,7.40
2018-08-19T02:21:19.033Z,7.90
2018-08-19T02:23:47.289Z,8.37
2018-08-19T02:26:19.725Z,9.50
2018-08-19T02:28:47.977Z,9.50
2018-08-19T02:31:16.256Z,9.83
2018-08-19T02:33:44.515Z,8.87
2018-08-19T02:36:14.544Z,8.70
2018-08-19T02:38:42.813Z,9.37
2018-08-19T02:41:11.257Z,9.13
2018-08-19T02:43:49.809Z,9.87
2018-08-19T02:46:18.320Z,8.30
2018-08-19T02:48:48.193Z,9.43
2018-08-19T02:51:17.535Z,8.63
2018-08-19T02:53:47.208Z,9.80
2018-08-19T02:56:16.118Z,9.63
2018-08-19T02:58:45.312Z,10.90
2018-08-19T03:01:14.560Z,9.80
2018-08-19T03:03:42.813Z,9.80
2018-08-19T03:06:15.041Z,9.93
2018-08-19T03:08:48.806Z,9.70
2018-08-19T03:11:19.215Z,8.43
2018-08-19T03:13:47.681Z,8.33
2018-08-19T03:16:15.930Z,9.87
2018-08-19T03:18:44.368Z,10.97
2018-08-19T03:21:13.240Z,10.97
2018-08-19T03:23:41.487Z,10.30
2018-08-19T03:26:09.882Z,10.23
2018-08-19T03:28:38.133Z,11.00
2018-08-19T03:31:06.429Z,9.33
2018-08-19T03:33:35.027Z,9.20
2018-08-19T03:36:03.281Z,11.63
2018-08-19T03:38:31.545Z,10.03
2018-08-19T03:40:59.824Z,11.13
2018-08-19T03:43:28.202Z,10.30
2018-08-19T03:45:57.419Z,11.50
2018-08-19T03:48:26.719Z,11.00
2018-08-19T03:50:54.990Z,11.70
2018-08-19T03:53:23.249Z,10.77
2018-08-19T03:55:51.521Z,10.00
2018-08-19T03:58:19.773Z,10.27
2018-08-19T04:00:48.125Z,10.30
2018-08-19T04:03:22.838Z,10.43
2018-08-19T04:05:59.309Z,10.87
2018-08-19T04:08:33.822Z,9.40
2018-08-19T04:11:04.981Z,9.17
2018-08-19T04:13:35.789Z,9.07
2018-08-19T04:16:05.239Z,9.00
2018-08-19T04:18:36.753Z,8.90
2018-08-19T04:21:07.365Z,8.87
2018-08-19T04:23:36.115Z,9.20
2018-08-19T04:26:04.744Z,11.87
2018-08-19T04:28:37.086Z,9.40
2018-08-19T04:31:11.385Z,8.30
2018-08-19T04:33:41.797Z,10.60
2018-08-19T04:36:12.057Z,9.50
2018-08-19T04:38:40.707Z,9.00
2018-08-19T04:41:09.077Z,9.10
2018-08-19T04:43:38.406Z,9.47
2018-08-19T04:46:06.673Z,8.40
2018-08-19T04:48:34.961Z,9.57
2018-08-19T04:51:03.232Z,8.10
2018-08-19T04:53:33.321Z,9.10
2018-08-19T04:56:01.597Z,8.97
2018-08-19T04:58:29.918Z,9.33
2018-08-19T05:00:58.231Z,8.53
2018-08-19T05:03:26.617Z,8.03
2018-08-19T05:05:55.745Z,7.57
2018-08-19T05:08:24.160Z,7.80
2018-08-19T05:10:52.312Z,7.73
2018-08-19T05:13:20.577Z,7.90
2018-08-19T05:15:48.843Z,7.90
2018-08-19T05:18:17.125Z,7.57
2018-08-19T05:20:45.373Z,8.57
2018-08-19T05:23:13.645Z,7.97
2018-08-19T05:25:47.350Z,8.27
2018-08-19T05:28:17.231Z,7.23
2018-08-19T05:30:46.269Z,9.70
2018-08-19T05:33:14.959Z,8.30
2018-08-19T05:35:43.211Z,8.50
2018-08-19T05:38:11.574Z,7.47
2018-08-19T05:40:47.964Z,8.17
2018-08-19T05:43:16.249Z,7.90
2018-08-19T05:45:51.008Z,7.03
2018-08-19T05:48:19.385Z,7.70
2018-08-19T05:50:47.656Z,7.60
2018-08-19T05:53:15.908Z,7.27
2018-08-19T05:55:44.583Z,8.57
2018-08-19T05:58:12.861Z,6.97
2018-08-19T06:00:43.346Z,7.13
2018-08-19T06:03:11.613Z,7.50
2018-08-19T06:05:39.905Z,6.37
2018-08-19T06:08:13.509Z,6.93
2018-08-19T06:10:42.029Z,7.93
2018-08-19T06:13:11.609Z,6.83
2018-08-19T06:15:40.219Z,7.50
2018-08-19T06:18:09.105Z,6.50
2018-08-19T06:20:37.405Z,5.80
2018-08-19T06:23:05.681Z,6.40
2018-08-19T06:25:33.977Z,7.10
2018-08-19T06:28:02.237Z,6.37
2018-08-19T06:30:30.525Z,6.40
2018-08-19T06:32:58.790Z,9.20
2018-08-19T06:35:27.126Z,6.30
2018-08-19T06:37:55.377Z,5.93
2018-08-19T06:40:24.312Z,6.30
2018-08-19T06:42:52.605Z,7.10
2018-08-19T06:45:20.887Z,6.40
2018-08-19T06:47:49.201Z,6.83
2018-08-19T06:50:25.525Z,6.10
2018-08-19T06:52:54.755Z,6.50
2018-08-19T06:55:23.305Z,5.60
2018-08-19T06:57:51.605Z,5.87
2018-08-19T07:00:25.308Z,5.47
2018-08-19T07:02:53.791Z,5.73
2018-08-19T07:05:22.061Z,5.67
2018-08-19T07:07:50.352Z,4.90
2018-08-19T07:10:26.277Z,6.50
2018-08-19T07:13:00.609Z,6.67
2018-08-19T07:15:28.864Z,5.23
2018-08-19T07:17:57.140Z,5.40
2018-08-19T07:20:25.421Z,5.27
2018-08-19T07:22:53.693Z,6.37
2018-08-19T07:25:21.945Z,4.70
2018-08-19T07:27:50.229Z,6.17
2018-08-19T07:30:18.465Z,5.10
2018-08-19T07:32:46.765Z,7.10
2018-08-19T07:35:15.049Z,6.17
2018-08-19T07:37:43.337Z,5.13
2018-08-19T07:40:11.617Z,6.40
2018-08-19T07:42:39.844Z,5.70
2018-08-19T07:45:08.225Z,7.93
2018-08-19T07:47:36.577Z,6.20
2018-08-19T07:50:05.457Z,7.20
2018-08-19T07:52:33.701Z,5.90
2018-08-19T07:55:01.997Z,6.27
2018-08-19T07:57:30.233Z,5.03
2018-08-19T07:59:58.508Z,5.50
2018-08-19T08:02:30.137Z,6.13
2018-08-19T08:04:58.493Z,5.57
2018-08-19T08:07:30.126Z,5.40
2018-08-19T08:09:58.443Z,6.03
2018-08-19T08:12:27.754Z,6.10
2018-08-19T08:14:56.042Z,6.27
2018-08-19T08:17:25.633Z,6.53
2018-08-19T08:19:58.130Z,6.40
2018-08-19T08:22:28.121Z,7.00
2018-08-19T08:24:56.897Z,6.50
2018-08-19T08:27:25.221Z,6.57
2018-08-19T08:29:53.709Z,6.10
2018-08-19T08:32:21.976Z,6.37
2018-08-19T08:34:50.218Z,6.30
2018-08-19T08:37:18.480Z,6.87
2018-08-19T08:39:49.342Z,5.97
2018-08-19T08:42:17.609Z,7.87
2018-08-19T08:44:45.910Z,5.43
2018-08-19T08:47:14.213Z,5.67
2018-08-19T08:49:47.965Z,6.50
2018-08-19T08:52:21.431Z,6.20
2018-08-19T08:54:55.832Z,5.53
2018-08-19T08:57:27.333Z,5.00
2018-08-19T08:59:55.821Z,5.27
2018-08-19T09:02:24.332Z,5.50
2018-08-19T09:04:54.018Z,4.97
2018-08-19T09:07:22.309Z,5.80
2018-08-19T09:09:51.706Z,5.77
2018-08-19T09:12:29.996Z,6.10
2018-08-19T09:14:58.237Z,6.30
2018-08-19T09:17:26.505Z,5.93
2018-08-19T09:19:54.765Z,5.40
2018-08-19T09:22:23.046Z,5.37
2018-08-19T09:24:51.281Z,6.37
2018-08-19T09:27:19.602Z,4.80
2018-08-19T09:29:47.850Z,6.47
2018-08-19T09:32:16.132Z,6.50
2018-08-19T09:34:44.382Z,6.83
2018-08-19T09:37:12.629Z,7.60
2018-08-19T09:39:40.913Z,7.63
2018-08-19T09:42:11.297Z,6.70
2018-08-19T09:44:40.721Z,6.43
2018-08-19T09:47:09.019Z,7.17
2018-08-19T09:49:37.498Z,7.13
2018-08-19T09:52:06.129Z,6.73
2018-08-19T09:54:35.882Z,6.10
2018-08-19T09:57:04.953Z,7.43
2018-08-19T09:59:33.234Z,7.07
2018-08-19T10:02:05.604Z,6.33
2018-08-19T10:04:34.068Z,7.43
2018-08-19T10:07:06.557Z,7.50
2018-08-19T10:09:34.930Z,6.83
2018-08-19T10:12:03.213Z,8.00
2018-08-19T10:14:31.488Z,6.80
2018-08-19T10:16:59.757Z,6.93
2018-08-19T10:19:28.941Z,7.07
2018-08-19T10:21:57.212Z,7.00
2018-08-19T10:24:30.054Z,8.67
2018-08-19T10:26:58.703Z,7.10
2018-08-19T10:29:26.992Z,7.60
2018-08-19T10:31:56.941Z,9.07
2018-08-19T10:34:29.347Z,8.97
2018-08-19T10:36:58.292Z,9.63
2018-08-19T10:39:26.568Z,10.40
2018-08-19T10:42:08.968Z,9.13
2018-08-19T10:44:37.209Z,9.50
2018-08-19T10:47:05.703Z,11.17
2018-08-19T10:49:33.962Z,9.83
2018-08-19T10:52:03.260Z,11.57
2018-08-19T10:54:31.651Z,11.10
2018-08-19T10:57:04.697Z,11.80
2018-08-19T10:59:33.040Z,13.33
2018-08-19T11:02:01.296Z,12.37
2018-08-19T11:04:29.646Z,12.70
2018-08-19T11:06:57.914Z,13.40
2018-08-19T11:09:26.192Z,12.27
2018-08-19T11:11:54.459Z,13.07
2018-08-19T11:14:22.737Z,13.63
2018-08-19T11:16:50.977Z,14.80
2018-08-19T11:19:19.854Z,14.80
2018-08-19T11:21:48.110Z,14.77
2018-08-19T11:24:30.929Z,13.87
2018-08-19T11:27:03.777Z,13.70
2018-08-19T11:29:36.169Z,14.90
2018-08-19T11:32:04.567Z,14.57
2018-08-19T11:34:32.950Z,13.73
2018-08-19T11:37:01.225Z,15.93
2018-08-19T11:39:34.777Z,14.50
2018-08-19T11:42:03.098Z,15.00
2018-08-19T11:44:35.282Z,14.00
2018-08-19T11:47:03.591Z,15.13
2018-08-19T11:49:31.881Z,14.80
2018-08-19T11:52:04.358Z,14.20
2018-08-19T11:54:33.607Z,14.90
2018-08-19T11:57:08.457Z,13.40
2018-08-19T11:59:43.679Z,14.17
2018-08-19T12:02:15.327Z,13.50
2018-08-19T12:04:44.581Z,15.67
2018-08-19T12:07:12.912Z,12.80
2018-08-19T12:09:44.170Z,13.70
2018-08-19T12:12:12.380Z,13.53
2018-08-19T12:14:41.825Z,13.47
2018-08-19T12:17:11.689Z,14.50
2018-08-19T12:19:42.315Z,13.93
2018-08-19T12:22:10.886Z,14.67
2018-08-19T12:24:41.530Z,14.70
2018-08-19T12:27:11.029Z,13.97
2018-08-19T12:29:40.550Z,14.77
2018-08-19T12:32:17.191Z,13.67
2018-08-19T12:34:51.269Z,13.87
2018-08-19T12:37:21.772Z,13.93
2018-08-19T12:39:50.427Z,14.83
2018-08-19T12:42:18.912Z,15.90
2018-08-19T12:44:51.077Z,15.23
2018-08-19T12:47:21.510Z,15.43
2018-08-19T12:49:51.721Z,14.53
2018-08-19T12:52:21.993Z,15.37
2018-08-19T12:55:27.293Z,15.80
2018-08-19T12:58:02.789Z,14.03
2018-08-19T13:00:31.198Z,14.20
2018-08-19T13:02:59.534Z,13.30
2018-08-19T13:05:27.858Z,13.77
2018-08-19T13:07:56.173Z,16.33
2018-08-19T13:10:24.779Z,15.67
2018-08-19T13:12:55.389Z,16.33
2018-08-19T13:15:25.093Z,14.40
2018-08-19T13:17:53.404Z,16.70
2018-08-19T13:20:21.730Z,16.20
2018-08-19T13:22:59.390Z,15.97
2018-08-19T13:25:27.752Z,16.80
2018-08-19T13:27:56.045Z,16.10
2018-08-19T13:30:24.404Z,16.03
2018-08-19T13:32:53.145Z,17.37
2018-08-19T13:35:21.509Z,16.03
2018-08-19T13:37:50.113Z,16.00
2018-08-19T13:40:18.441Z,15.40
2018-08-19T13:42:46.741Z,17.53
2018-08-19T13:45:16.109Z,16.60
2018-08-19T13:47:46.181Z,16.50
2018-08-19T13:50:14.586Z,17.20
2018-08-19T13:52:43.165Z,15.27
2018-08-19T13:55:13.301Z,14.47
2018-08-19T13:57:41.917Z,15.90
2018-08-19T14:00:19.586Z,14.93
2018-08-19T14:02:48.336Z,15.80
2018-08-19T14:05:16.615Z,14.50
2018-08-19T14:07:44.917Z,16.80
2018-08-19T14:10:14.535Z,15.73
2018-08-19T14:12:42.816Z,16.50
2018-08-19T14:15:11.109Z,16.10
2018-08-19T14:17:39.365Z,15.20
2018-08-19T14:20:09.172Z,15.30
2018-08-19T14:22:37.434Z,16.60
2018-08-19T14:25:07.165Z,17.80
2018-08-19T14:27:35.534Z,16.20
2018-08-19T14:30:03.974Z,17.10
2018-08-19T14:32:34.240Z,17.00
2018-08-19T14:35:03.812Z,18.77
2018-08-19T14:37:32.312Z,16.13
2018-08-19T14:40:01.387Z,16.47
2018-08-19T14:42:29.613Z,16.10
2018-08-19T14:44:58.883Z,14.73
2018-08-19T14:47:27.789Z,14.80
2018-08-19T14:49:57.064Z,18.00
2018-08-19T14:52:26.092Z,16.77
2018-08-19T14:54:54.393Z,15.90
2018-08-19T14:57:22.706Z,16.73
2018-08-19T14:59:50.994Z,16.23
2018-08-19T15:02:20.264Z,18.63
2018-08-19T15:04:48.776Z,16.70
2018-08-19T15:07:17.078Z,16.47
2018-08-19T15:09:47.818Z,16.80
2018-08-19T15:12:19.789Z,17.53
2018-08-19T15:14:48.227Z,15.77
2018-08-19T15:17:16.534Z,17.53
2018-08-19T15:19:47.955Z,15.30
2018-08-19T15:22:16.462Z,16.00
2018-08-19T15:24:45.732Z,14.10
2018-08-19T15:27:14.118Z,14.83
2018-08-19T15:29:44.312Z,16.23
2018-08-19T15:32:12.995Z,15.30
2018-08-19T15:34:41.225Z,16.03
2018-08-19T15:37:09.500Z,15.37
2018-08-19T15:39:37.826Z,15.20
2018-08-19T15:42:06.127Z,16.27
2018-08-19T15:44:34.359Z,14.10
2018-08-19T15:47:02.697Z,14.93
2018-08-19T15:49:30.939Z,15.63
2018-08-19T15:51:59.226Z,17.00
2018-08-19T15:54:27.501Z,15.20
2018-08-19T15:56:59.262Z,16.77
2018-08-19T15:59:27.980Z,15.53
2018-08-19T16:01:56.233Z,16.73
2018-08-19T16:04:25.009Z,16.20
2018-08-19T16:06:54.512Z,16.70
2018-08-19T16:09:24.251Z,15.57
2018-08-19T16:11:54.958Z,15.30
2018-08-19T16:14:31.961Z,15.60
2018-08-19T16:17:01.554Z,15.53
2018-08-19T16:19:29.817Z,14.80
2018-08-19T16:21:59.029Z,15.20
2018-08-19T16:24:27.623Z,15.43
2018-08-19T16:26:55.949Z,16.13
2018-08-19T16:29:24.197Z,15.57
2018-08-19T16:31:52.493Z,15.07
2018-08-19T16:34:21.833Z,14.20
2018-08-19T16:36:50.093Z,15.80
2018-08-19T16:39:19.057Z,14.67
2018-08-19T16:41:47.314Z,14.98
2018-08-19T16:44:15.601Z,14.97
2018-08-19T16:46:43.889Z,15.40
2018-08-19T16:49:12.222Z,15.07
2018-08-19T16:51:40.486Z,15.20
2018-08-19T16:54:09.833Z,16.97
2018-08-19T16:56:38.173Z,16.00
2018-08-19T16:59:06.458Z,15.37
2018-08-19T17:01:35.777Z,15.17
2018-08-19T17:04:04.065Z,17.60
2018-08-19T17:06:32.433Z,17.50
2018-08-19T17:09:01.683Z,19.43
2018-08-19T17:11:29.941Z,20.50
2018-08-19T17:13:58.225Z,18.60
2018-08-19T17:16:26.557Z,20.03
2018-08-19T17:18:54.938Z,18.23
2018-08-19T17:21:24.302Z,19.60
2018-08-19T17:23:53.606Z,18.63
2018-08-19T17:26:22.957Z,17.70
2018-08-19T17:28:51.546Z,19.10
2018-08-19T17:31:20.115Z,18.40
2018-08-19T17:33:48.431Z,18.10
2018-08-19T17:36:22.373Z,19.77
2018-08-19T17:38:50.733Z,15.60
2018-08-19T17:41:19.016Z,15.40
2018-08-19T17:43:47.329Z,17.60
2018-08-19T17:46:16.743Z,18.00
2018-08-19T17:48:45.641Z,16.67
2018-08-19T17:51:26.426Z,17.30
2018-08-19T17:53:54.722Z,16.17
2018-08-19T17:56:23.016Z,15.73
2018-08-19T17:58:51.552Z,15.63
2018-08-19T18:01:20.137Z,15.60
2018-08-19T18:03:48.445Z,14.40
2018-08-19T18:06:16.692Z,15.27
2018-08-19T18:08:50.034Z,14.43
2018-08-19T18:11:18.862Z,14.90
2018-08-19T18:13:47.337Z,14.33
2018-08-19T18:16:16.046Z,14.37
2018-08-19T18:18:45.207Z,14.40
2018-08-19T18:21:13.540Z,14.03
2018-08-19T18:23:44.938Z,14.40
2018-08-19T18:26:13.263Z,14.97
2018-08-19T18:28:43.801Z,13.83
2018-08-19T18:31:12.161Z,14.20
2018-08-19T18:33:52.569Z,13.30
2018-08-19T18:36:23.195Z,14.20
2018-08-19T18:38:51.553Z,13.07
2018-08-19T18:41:51.672Z,12.40
2018-08-19T18:44:20.275Z,12.70
2018-08-19T18:46:49.579Z,14.23
2018-08-19T18:49:17.885Z,14.10
2018-08-19T18:51:51.041Z,14.40
2018-08-19T18:54:36.826Z,11.80
2018-08-19T18:57:07.409Z,10.93
2018-08-19T18:59:35.700Z,13.30
2018-08-19T19:02:04.687Z,10.40
2018-08-19T19:04:32.999Z,11.37
2018-08-19T19:07:01.274Z,11.33
2018-08-19T19:10:03.124Z,10.77
2018-08-19T19:12:31.398Z,9.73
2018-08-19T19:14:59.648Z,8.70
2018-08-19T19:17:27.940Z,10.37
2018-08-19T19:19:56.222Z,11.20
2018-08-19T19:22:24.496Z,9.50
2018-08-19T19:24:52.800Z,9.77
2018-08-19T19:27:21.098Z,10.30
2018-08-19T19:29:54.479Z,8.77
2018-08-19T19:32:23.973Z,9.93
2018-08-19T19:34:52.471Z,8.57
2018-08-19T19:37:20.987Z,9.50
2018-08-19T19:40:00.741Z,9.40
2018-08-19T19:42:29.016Z,8.83
2018-08-19T19:44:57.297Z,9.10
2018-08-19T19:47:25.565Z,10.53
2018-08-19T19:49:56.834Z,9.75
2018-08-19T19:52:25.042Z,9.43
2018-08-19T19:54:53.300Z,9.70
2018-08-19T19:57:21.670Z,9.57
2018-08-19T19:59:49.946Z,10.13
2018-08-19T20:02:22.951Z,9.43
2018-08-19T20:04:51.573Z,9.53
2018-08-19T20:07:19.821Z,8.87
2018-08-19T20:09:48.093Z,9.60
2018-08-19T20:12:25.515Z,9.47
2018-08-19T20:14:53.774Z,8.80
2018-08-19T20:17:22.373Z,10.13
2018-08-19T20:19:51.230Z,9.03
2018-08-19T20:22:19.795Z,9.30
2018-08-19T20:24:48.251Z,11.67
2018-08-19T20:27:16.805Z,9.97
2018-08-19T20:29:45.349Z,9.90
2018-08-19T20:32:13.637Z,10.00
2018-08-19T20:34:41.881Z,9.20
2018-08-19T20:37:11.281Z,10.33
2018-08-19T20:39:39.547Z,10.87
2018-08-19T20:42:08.217Z,9.90
2018-08-19T20:44:37.617Z,10.85
2018-08-19T20:47:07.534Z,10.03
2018-08-19T20:49:35.829Z,9.80
2018-08-19T20:52:04.153Z,9.70
2018-08-19T20:54:32.449Z,9.47
2018-08-19T20:57:00.769Z,10.13
2018-08-19T20:59:35.060Z,9.73
2018-08-19T21:02:04.138Z,9.90
2018-08-19T21:04:32.625Z,9.23
2018-08-19T21:07:02.641Z,10.00
2018-08-19T21:09:31.829Z,10.93
2018-08-19T21:12:00.131Z,10.63
2018-08-19T21:14:28.434Z,9.97
2018-08-19T21:16:56.677Z,9.70
2018-08-19T21:19:24.917Z,9.83
2018-08-19T21:21:54.305Z,9.17
2018-08-19T21:24:22.908Z,9.60
2018-08-19T21:26:56.341Z,9.50
2018-08-19T21:29:24.641Z,9.80
2018-08-19T21:31:52.888Z,8.70
2018-08-19T21:34:21.139Z,9.20
2018-08-19T21:36:49.617Z,10.43
2018-08-19T21:39:17.868Z,10.47
2018-08-19T21:41:51.046Z,12.60
2018-08-19T21:44:19.898Z,10.93
2018-08-19T21:46:48.165Z,10.87
2018-08-19T21:49:16.469Z,11.13
2018-08-19T21:51:44.757Z,11.03
2018-08-19T21:54:15.790Z,11.70
2018-08-19T21:56:44.076Z,11.70
2018-08-19T21:59:20.377Z,11.00
2018-08-19T22:02:00.139Z,11.93
2018-08-19T22:04:29.308Z,10.80
2018-08-19T22:06:57.738Z,13.40
2018-08-19T22:09:37.528Z,13.33
2018-08-19T22:12:07.167Z,13.33
2018-08-19T22:14:35.448Z,13.63
2018-08-19T22:17:09.889Z,14.10
2018-08-19T22:19:38.468Z,14.23
2018-08-19T22:22:06.785Z,14.00
2018-08-19T22:24:35.326Z,14.47
2018-08-19T22:27:08.704Z,13.73
2018-08-19T22:29:37.059Z,14.67
2018-08-19T22:32:05.342Z,15.50
2018-08-19T22:34:33.625Z,16.00
2018-08-19T22:37:01.996Z,16.23
2018-08-19T22:39:30.300Z,15.23
2018-08-19T22:41:58.583Z,14.50
2018-08-19T22:44:26.851Z,14.33
2018-08-19T22:46:55.120Z,14.50
2018-08-19T22:49:26.453Z,13.50
2018-08-19T22:51:54.737Z,14.20
2018-08-19T22:54:22.989Z,13.77
2018-08-19T22:56:51.280Z,13.70
2018-08-19T22:59:19.524Z,14.43
2018-08-19T23:01:48.853Z,16.12
2018-08-19T23:04:17.130Z,14.50
2018-08-19T23:06:45.412Z,14.77
2018-08-19T23:09:13.683Z,14.77
2018-08-19T23:11:47.318Z,14.63
2018-08-19T23:14:27.122Z,15.30
2018-08-19T23:16:55.428Z,14.50
2018-08-19T23:19:23.685Z,15.17
2018-08-19T23:21:52.076Z,13.70
2018-08-19T23:24:20.344Z,14.60
2018-08-19T23:26:48.629Z,14.23
2018-08-19T23:29:16.894Z,16.03
2018-08-19T23:31:45.147Z,14.97
2018-08-19T23:34:13.398Z,14.83
2018-08-19T23:36:41.669Z,17.27
2018-08-19T23:39:10.480Z,16.00
2018-08-19T23:41:38.756Z,14.80
2018-08-19T23:44:08.350Z,14.97
2018-08-19T23:46:36.786Z,14.93
2018-08-19T23:49:06.221Z,13.60
2018-08-19T23:51:34.525Z,13.20
2018-08-19T23:54:03.585Z,12.57
2018-08-19T23:56:32.268Z,11.40
2018-08-19T23:59:01.001Z,13.13
